Time;durP1;ratioP1;P1;durP2;ratioP2;P2;SDS_P1;SDS_P2;PMS_P1;PMS_P2;Temp;Humidity;BMP_temperature;BMP_pressure;BME280_temperature;BME280_humidity;BME280_pressure;Samples;Min_cycle;Max_cycle;Signal;HPM_P1;HPM_P2
2022/08/29 00:02:24;;;;;;;17.67;6.75;;;;;;;17.09;62.60;102091.16;5094315;28;20024;-64
2022/08/29 00:04:50;;;;;;;14.85;6.70;;;;;;;17.23;62.04;102080.53;5094308;28;20093;-64
2022/08/29 00:07:16;;;;;;;15.98;6.90;;;;;;;17.24;62.09;102088.53;5094128;28;20481;-63
2022/08/29 00:09:41;;;;;;;18.65;6.82;;;;;;;17.23;61.97;102085.88;5093970;28;20389;-63
2022/08/29 00:12:06;;;;;;;15.43;7.15;;;;;;;17.27;61.90;102085.88;5094050;28;20378;-64
2022/08/29 00:14:32;;;;;;;16.77;7.45;;;;;;;17.34;61.05;102085.88;5093775;28;20056;-63
2022/08/29 00:16:58;;;;;;;17.77;7.40;;;;;;;17.35;61.22;102085.00;5093991;28;20549;-63
2022/08/29 00:19:23;;;;;;;15.25;7.95;;;;;;;17.34;61.06;102084.09;5093826;28;20028;-63
2022/08/29 00:21:49;;;;;;;19.67;8.52;;;;;;;17.32;61.16;102082.31;5093668;28;20020;-63
2022/08/29 00:24:15;;;;;;;18.63;8.88;;;;;;;17.24;61.67;102082.31;5093533;28;20028;-64
2022/08/29 00:26:41;;;;;;;19.58;8.95;;;;;;;17.27;61.51;102083.22;5093644;28;20039;-63
2022/08/29 00:29:06;;;;;;;22.25;9.13;;;;;;;17.36;61.24;102081.44;5093570;28;20028;-63
2022/08/29 00:31:32;;;;;;;17.95;8.70;;;;;;;17.37;61.24;102085.91;5093705;28;20032;-63
2022/08/29 00:33:57;;;;;;;16.38;8.45;;;;;;;17.35;60.88;102080.56;5093548;28;20036;-62
2022/08/29 00:36:24;;;;;;;20.70;9.40;;;;;;;17.25;61.14;102079.63;5093635;28;20024;-63
2022/08/29 00:38:50;;;;;;;22.90;9.05;;;;;;;17.16;61.61;102090.28;5093411;28;20032;-63
2022/08/29 00:41:15;;;;;;;20.35;9.38;;;;;;;17.02;62.17;102081.34;5093435;28;20102;-63
2022/08/29 00:43:40;;;;;;;20.02;9.68;;;;;;;17.08;61.85;102094.69;5093496;28;20039;-64
2022/08/29 00:46:40;;;;;;;19.92;9.18;;;;;;;17.14;61.36;102100.09;5093525;28;20025;-63
2022/08/29 00:49:23;;;;;;;21.80;9.43;;;;;;;17.04;61.60;102100.91;5075229;28;20376;-64
2022/08/29 00:51:49;;;;;;;20.02;9.80;;;;;;;16.91;62.20;102107.97;5093723;28;20096;-63
2022/08/29 00:54:15;;;;;;;20.05;9.35;;;;;;;16.91;61.98;102091.06;5093375;28;20047;-63
2022/08/29 00:56:42;;;;;;;17.63;8.98;;;;;;;16.91;61.78;102097.28;5075445;28;20039;-64
2022/08/29 00:59:31;;;;;;;20.30;9.70;;;;;;;16.90;61.70;102086.63;5093072;28;20043;-63
2022/08/29 01:01:57;;;;;;;20.63;9.05;;;;;;;16.88;61.69;102088.41;5075072;28;20478;-64
2022/08/29 01:04:23;;;;;;;22.30;9.75;;;;;;;16.84;61.76;102087.50;5093233;28;20100;-64
2022/08/29 01:06:48;;;;;;;21.25;9.15;;;;;;;16.80;61.81;102101.72;5093028;28;20048;-63
2022/08/29 01:09:14;;;;;;;20.17;9.55;;;;;;;16.73;61.88;102102.56;5093153;28;20035;-63
2022/08/29 01:14:26;;;;;;;17.20;8.55;;;;;;;16.55;62.09;102097.09;5092980;28;20055;-65
2022/08/29 01:16:56;;;;;;;19.65;9.02;;;;;;;16.55;61.80;102094.41;5074955;28;20474;-63
2022/08/29 01:19:39;;;;;;;19.83;8.85;;;;;;;16.51;61.92;102102.38;5093208;28;20024;-64
2022/08/29 01:22:32;;;;;;;20.42;8.85;;;;;;;16.54;61.49;102106.88;5092990;28;20035;-64
2022/08/29 01:24:58;;;;;;;21.58;9.70;;;;;;;16.49;62.55;102105.94;5093332;28;20111;-64
2022/08/29 01:27:28;;;;;;;20.35;8.73;;;;;;;16.53;62.10;102107.75;5093180;28;20429;-63
2022/08/29 01:29:53;;;;;;;21.80;8.85;;;;;;;16.52;62.18;102100.59;5092931;28;20077;-64
2022/08/29 01:32:20;;;;;;;18.75;9.07;;;;;;;16.47;62.25;102107.69;5092973;28;20534;-64
2022/08/29 01:34:45;;;;;;;17.67;9.07;;;;;;;16.38;62.68;102103.19;5096042;28;20102;-64
2022/08/29 01:37:13;;;;;;;20.85;8.85;;;;;;;16.42;62.16;102107.66;5078710;28;20165;-64
2022/08/29 01:39:40;;;;;;;17.65;8.32;;;;;;;16.33;62.17;102098.72;5096991;28;20047;-63
2022/08/29 01:42:16;;;;;;;16.75;8.63;;;;;;;16.35;62.09;102100.50;5097072;28;20366;-64
2022/08/29 01:44:48;;;;;;;18.98;8.52;;;;;;;16.28;62.22;102099.56;5097033;28;20431;-64
2022/08/29 01:47:14;;;;;;;;;;;;;;;16.47;60.25;102091.69;5097354;28;20024;-64
2022/08/29 01:49:39;;;;;;;19.02;8.45;;;;;;;16.39;62.01;102090.75;5096679;28;19912;-64
2022/08/29 01:52:06;;;;;;;17.35;8.68;;;;;;;16.39;61.65;102094.31;5096721;28;20050;-63
2022/08/29 01:54:31;;;;;;;20.95;8.88;;;;;;;16.36;61.58;102085.38;5096732;28;20386;-64
2022/08/29 01:56:57;;;;;;;17.23;9.30;;;;;;;16.22;61.76;102094.19;5096801;28;20069;-64
2022/08/29 01:59:26;;;;;;;18.40;9.32;;;;;;;16.14;62.53;102101.22;5096595;28;20024;-65
2022/08/29 02:01:59;;;;;;;23.70;10.15;;;;;;;16.17;62.62;102095.03;5096565;28;20377;-63
2022/08/29 02:04:26;;;;;;;20.42;10.27;;;;;;;16.10;62.70;102104.78;5096466;28;20043;-64
2022/08/29 02:06:51;;;;;;;17.33;9.60;;;;;;;16.07;62.32;102104.75;5096462;28;20512;-63
2022/08/29 02:09:17;;;;;;;20.42;9.77;;;;;;;16.03;62.74;102100.25;5096396;28;20035;-64
2022/08/29 02:11:44;;;;;;;25.10;11.02;;;;;;;16.08;62.85;102094.97;5096425;28;20028;-63
2022/08/29 02:14:10;;;;;;;22.38;11.23;;;;;;;16.07;63.31;102095.84;5096132;28;20036;-63
2022/08/29 02:16:35;;;;;;;24.00;11.25;;;;;;;15.98;63.34;102096.69;5096274;28;20496;-63
2022/08/29 02:19:00;;;;;;;22.85;11.60;;;;;;;15.99;63.54;102099.34;5096215;28;20016;-64
2022/08/29 02:21:28;;;;;;;24.20;11.18;;;;;;;15.92;63.77;102096.59;5096379;28;20028;-63
2022/08/29 02:23:56;;;;;;;19.88;11.05;;;;;;;15.75;64.26;102101.78;5096253;28;20358;-64
2022/08/29 02:26:22;;;;;;;21.98;10.55;;;;;;;15.56;64.72;102102.47;5096213;28;20109;-63
2022/08/29 02:28:50;;;;;;;20.63;10.88;;;;;;;15.38;65.07;102109.38;5077781;28;20477;-62
2022/08/29 02:31:16;;;;;;;21.13;11.15;;;;;;;15.18;66.02;102110.91;5078345;28;20086;-63
2022/08/29 02:33:42;;;;;;;21.25;11.05;;;;;;;15.15;65.60;102114.41;5095977;28;20024;-63
2022/08/29 02:36:07;;;;;;;26.35;10.65;;;;;;;15.03;66.33;102115.19;5095902;28;20170;-63
2022/08/29 02:38:34;;;;;;;21.65;11.65;;;;;;;15.03;66.40;102120.50;5095841;28;20023;-63
2022/08/29 02:41:00;;;;;;;25.77;10.90;;;;;;;14.96;66.69;102115.97;5095930;28;20073;-64
2022/08/29 02:43:25;;;;;;;23.95;11.02;;;;;;;14.91;67.08;102128.31;5095840;28;20104;-63
2022/08/29 02:45:51;;;;;;;20.52;10.63;;;;;;;14.98;66.65;102121.28;5095460;28;20106;-63
2022/08/29 02:48:17;;;;;;;18.85;10.80;;;;;;;15.14;66.25;102125.06;5095573;28;20024;-64
2022/08/29 02:50:49;;;;;;;22.65;10.90;;;;;;;15.21;65.78;102126.94;5095710;28;20060;-63
2022/08/29 02:53:17;;;;;;;22.80;11.05;;;;;;;15.33;65.09;102126.16;5095503;28;20122;-64
2022/08/29 02:55:43;;;;;;;22.92;10.82;;;;;;;15.38;65.12;102127.13;5095299;28;20438;-64
2022/08/29 02:58:08;;;;;;;19.25;10.73;;;;;;;15.47;64.33;102117.47;5095397;28;20103;-64
2022/08/29 03:00:34;;;;;;;23.52;11.35;;;;;;;15.42;64.91;102124.50;5095389;28;20104;-64
2022/08/29 03:03:01;;;;;;;21.33;10.68;;;;;;;15.49;64.57;102125.47;5095499;28;20052;-64
2022/08/29 03:05:31;;;;;;;23.63;11.07;;;;;;;15.43;64.52;102115.63;5095673;28;20031;-64
2022/08/29 03:07:57;;;;;;;21.10;10.73;;;;;;;15.43;64.21;102118.31;5095310;28;20099;-65
2022/08/29 03:10:23;;;;;;;21.52;10.38;;;;;;;15.42;64.35;102108.53;5095260;28;20040;-66
2022/08/29 03:12:49;;;;;;;22.45;10.07;;;;;;;15.35;64.91;102121.75;5095062;28;20028;-65
2022/08/29 03:15:15;;;;;;;23.10;11.00;;;;;;;15.24;65.42;102110.97;5094916;28;20065;-64
2022/08/29 03:17:41;;;;;;;19.33;11.07;;;;;;;15.17;65.53;102119.78;5095313;28;20025;-65
2022/08/29 03:20:08;;;;;;;22.67;10.82;;;;;;;15.13;65.70;102109.97;5095120;28;20043;-65
2022/08/29 03:22:35;;;;;;;20.63;10.85;;;;;;;15.10;65.61;102113.47;5095230;28;20028;-64
2022/08/29 03:25:02;;;;;;;21.98;10.85;;;;;;;15.02;66.30;102115.13;5095055;28;20024;-65
2022/08/29 03:27:30;;;;;;;23.90;11.38;;;;;;;15.04;66.09;102121.38;5094978;28;20089;-65
2022/08/29 03:29:55;;;;;;;23.10;10.90;;;;;;;15.05;66.12;102108.97;5094412;28;20028;-65
2022/08/29 03:32:21;;;;;;;20.85;10.32;;;;;;;15.11;65.97;102109.91;5094737;28;20499;-64
2022/08/29 03:34:47;;;;;;;21.63;10.20;;;;;;;15.12;65.71;102117.06;5094723;28;20016;-65
2022/08/29 03:37:12;;;;;;;22.13;10.10;;;;;;;15.21;65.61;102101.19;5076613;28;20036;-63
2022/08/29 03:39:38;;;;;;;18.85;9.80;;;;;;;15.27;64.95;102103.91;5094702;28;20020;-65
2022/08/29 03:42:06;;;;;;;21.13;10.05;;;;;;;15.27;64.60;102103.91;5094562;28;20564;-64
2022/08/29 03:44:33;;;;;;;18.30;8.95;;;;;;;15.27;65.02;102098.59;5094370;28;20469;-64
2022/08/29 03:46:59;;;;;;;17.02;8.73;;;;;;;15.35;64.74;102095.13;5094471;28;20070;-64
2022/08/29 03:49:24;;;;;;;19.42;9.27;;;;;;;15.38;64.71;102101.38;5094493;28;20075;-65
2022/08/29 03:51:50;;;;;;;15.57;9.10;;;;;;;15.39;65.26;102089.84;5094323;28;20020;-65
2022/08/29 03:54:16;;;;;;;14.52;8.60;;;;;;;15.46;64.07;102093.44;5094388;28;20028;-64
2022/08/29 03:56:41;;;;;;;16.80;9.02;;;;;;;15.45;64.15;102081.91;5093670;28;20040;-64
2022/08/29 03:59:07;;;;;;;18.92;9.00;;;;;;;15.45;64.13;102075.69;5093888;28;20508;-64
2022/08/29 04:01:33;;;;;;;16.05;8.65;;;;;;;15.38;64.26;102081.84;5094483;28;20389;-65
2022/08/29 04:03:58;;;;;;;19.23;9.25;;;;;;;15.31;64.13;102077.31;5094135;28;20477;-64
2022/08/29 04:06:27;;;;;;;16.55;8.75;;;;;;;15.31;64.49;102072.88;5094099;28;20473;-64
2022/08/29 04:08:53;;;;;;;15.57;8.60;;;;;;;15.15;65.22;102069.16;5094348;28;20028;-64
2022/08/29 04:11:20;;;;;;;16.35;8.57;;;;;;;15.04;65.74;102076.13;5094141;28;20381;-64
2022/08/29 04:13:47;;;;;;;16.20;8.27;;;;;;;14.98;66.52;102070.72;5075742;28;20055;-64
2022/08/29 04:16:15;;;;;;;20.45;8.98;;;;;;;15.09;66.04;102079.75;5093807;28;20028;-64
2022/08/29 04:18:40;;;;;;;14.38;8.27;;;;;;;15.12;65.28;102077.13;5094155;28;20362;-64
2022/08/29 04:21:06;;;;;;;18.23;8.63;;;;;;;15.06;65.51;102078.81;5093963;28;20509;-64
2022/08/29 04:23:34;;;;;;;16.42;8.57;;;;;;;15.05;65.85;102085.00;5075719;28;20035;-62
2022/08/29 04:25:59;;;;;;;16.70;9.02;;;;;;;14.97;66.24;102088.47;5093694;28;20024;-64
2022/08/29 04:28:25;;;;;;;19.60;8.82;;;;;;;14.93;67.08;102089.28;5093549;28;20470;-66
2022/08/29 04:30:52;;;;;;;17.88;8.73;;;;;;;14.98;66.72;102086.69;5093498;28;20026;-62
2022/08/29 04:33:18;;;;;;;18.80;8.95;;;;;;;15.01;66.64;102086.72;5093659;28;20070;-62
2022/08/29 04:35:44;;;;;;;19.23;9.43;;;;;;;14.99;66.68;102084.06;5093724;28;20020;-62
2022/08/29 04:38:09;;;;;;;18.90;9.98;;;;;;;15.01;66.98;102081.41;5093574;28;20043;-63
2022/08/29 04:40:37;;;;;;;18.52;9.05;;;;;;;14.96;67.00;102089.34;5093366;28;20028;-63
2022/08/29 04:43:03;;;;;;;20.08;9.95;;;;;;;14.92;67.47;102095.50;5093476;28;20524;-63
2022/08/29 04:45:28;;;;;;;19.75;10.23;;;;;;;14.87;67.93;102097.22;5093509;28;20056;-63
2022/08/29 04:47:53;;;;;;;20.90;9.25;;;;;;;14.88;67.58;102103.44;5093546;28;20028;-63
2022/08/29 04:50:22;;;;;;;19.50;10.15;;;;;;;14.89;67.80;102103.44;5093421;28;20482;-64
2022/08/29 04:52:49;;;;;;;23.75;10.30;;;;;;;14.91;67.78;102112.34;5093311;28;20423;-63
2022/08/29 04:55:16;;;;;;;24.88;10.88;;;;;;;14.88;67.77;102111.41;5092895;28;20112;-64
2022/08/29 04:57:41;;;;;;;19.17;9.95;;;;;;;14.85;67.99;102103.38;5093325;28;20025;-63
2022/08/29 05:00:13;;;;;;;23.65;10.13;;;;;;;14.90;68.15;102109.66;5092313;28;20016;-63
2022/08/29 05:02:41;;;;;;;24.70;10.80;;;;;;;14.87;67.45;102105.19;5093325;28;20077;-63
2022/08/29 05:05:07;;;;;;;17.98;9.60;;;;;;;14.92;67.26;102106.16;5092994;28;20055;-63
2022/08/29 05:07:33;;;;;;;20.98;9.93;;;;;;;14.87;67.71;102099.88;5093108;28;20036;-64
2022/08/29 05:10:10;;;;;;;23.80;10.70;;;;;;;14.89;67.63;102103.44;5092697;28;20028;-64
2022/08/29 05:12:36;;;;;;;21.13;10.40;;;;;;;14.93;67.34;102105.25;5091473;28;20424;-64
2022/08/29 05:15:04;;;;;;;23.45;10.13;;;;;;;14.94;67.37;102107.03;5090919;28;20557;-63
2022/08/29 05:17:29;;;;;;;17.58;9.27;;;;;;;15.01;66.82;102110.69;5091699;28;20477;-64
2022/08/29 05:19:55;;;;;;;20.77;9.40;;;;;;;15.07;66.43;102112.53;5091648;28;20028;-65
2022/08/29 05:22:20;;;;;;;17.15;8.77;;;;;;;14.94;66.85;102112.38;5092356;28;20374;-63
2022/08/29 05:24:47;;;;;;;21.40;8.00;;;;;;;14.92;67.42;102118.56;5092284;28;20024;-64
2022/08/29 05:27:16;;;;;;;16.70;8.07;;;;;;;14.85;67.60;102116.69;5092877;28;20381;-64
2022/08/29 05:29:44;;;;;;;18.15;7.65;;;;;;;14.84;68.29;102122.88;5092730;28;20059;-64
2022/08/29 05:32:13;;;;;;;17.15;6.90;;;;;;;14.87;68.28;102125.59;5093145;28;20048;-64
2022/08/29 05:34:40;;;;;;;13.95;6.65;;;;;;;14.74;69.26;102130.75;5092810;28;20085;-64
2022/08/29 05:37:19;;;;;;;15.43;6.13;;;;;;;14.75;69.68;102127.19;5092684;28;20021;-64
2022/08/29 05:39:46;;;;;;;11.45;6.30;;;;;;;14.73;69.98;102126.31;5092897;28;20171;-64
2022/08/29 05:42:12;;;;;;;10.23;5.43;;;;;;;14.78;70.17;102137.00;5092815;28;20081;-64
2022/08/29 05:44:38;;;;;;;12.77;5.22;;;;;;;14.85;69.89;102141.53;5092933;28;20032;-65
2022/08/29 05:47:06;;;;;;;13.18;5.22;;;;;;;14.98;69.73;102140.81;5092780;28;20029;-65
2022/08/29 05:49:35;;;;;;;11.73;5.18;;;;;;;15.10;69.40;102137.44;5092544;28;20024;-64
2022/08/29 05:52:00;;;;;;;10.35;5.18;;;;;;;15.26;68.79;102136.75;5092939;28;20032;-64
2022/08/29 05:54:26;;;;;;;12.05;5.20;;;;;;;15.41;68.45;102144.00;5092664;28;20024;-64
2022/08/29 05:56:51;;;;;;;9.82;5.22;;;;;;;15.51;68.88;102155.69;5074667;28;20123;-64
2022/08/29 05:59:17;;;;;;;8.95;5.05;;;;;;;15.63;68.87;102145.19;5092506;28;20033;-64
2022/08/29 06:01:45;;;;;;;10.23;5.00;;;;;;;15.66;68.82;102145.22;5092577;28;20024;-64
2022/08/29 06:04:10;;;;;;;17.13;5.43;;;;;;;15.80;69.00;102150.69;5092504;28;20039;-63
2022/08/29 06:06:36;;;;;;;18.63;7.65;;;;;;;15.90;69.10;102149.03;5074478;28;20024;-64
2022/08/29 06:09:01;;;;;;;10.82;4.95;;;;;;;15.94;69.00;102145.50;5092952;28;20053;-64
2022/08/29 06:11:29;;;;;;;12.90;4.97;;;;;;;15.94;68.62;102142.84;5092628;28;20028;-64
2022/08/29 06:13:55;;;;;;;12.30;5.20;;;;;;;15.95;69.66;102149.97;5092237;28;20052;-63
2022/08/29 06:16:22;;;;;;;12.43;4.97;;;;;;;15.96;69.35;102151.72;5092393;28;20134;-64
2022/08/29 06:18:48;;;;;;;14.07;5.20;;;;;;;15.94;69.48;102162.41;5092265;28;20016;-64
2022/08/29 06:21:14;;;;;;;10.10;5.13;;;;;;;16.05;69.04;102149.16;5077840;28;20595;-64
2022/08/29 06:23:41;;;;;;;12.93;5.38;;;;;;;16.07;69.53;102152.75;5096070;28;20031;-64
2022/08/29 06:26:08;;;;;;;14.65;5.38;;;;;;;16.11;69.31;102151.88;5096204;28;20398;-64
2022/08/29 06:28:35;;;;;;;13.52;5.15;;;;;;;16.11;69.33;102157.22;5095847;28;20036;-63
2022/08/29 06:31:05;;;;;;;8.88;5.07;;;;;;;16.12;69.20;102164.34;5096071;28;20016;-64
2022/08/29 06:33:31;;;;;;;10.82;5.50;;;;;;;16.17;68.70;102159.03;5095930;28;20024;-64
2022/08/29 06:35:56;;;;;;;13.63;5.32;;;;;;;16.24;68.60;102158.22;5096170;28;20047;-64
2022/08/29 06:38:21;;;;;;;13.38;5.28;;;;;;;16.25;68.25;102163.56;5095872;28;20036;-63
2022/08/29 06:40:47;;;;;;;9.18;5.47;;;;;;;16.28;67.69;102162.69;5077664;28;20026;-64
2022/08/29 06:43:12;;;;;;;10.10;5.47;;;;;;;16.30;67.93;102162.69;5095755;28;20024;-65
2022/08/29 06:45:41;;;;;;;18.05;8.18;;;;;;;16.38;69.01;102161.00;5095660;28;20068;-64
2022/08/29 06:48:07;;;;;;;12.38;5.15;;;;;;;16.46;67.51;102167.28;5095816;28;20039;-63
2022/08/29 06:50:35;;;;;;;10.35;5.30;;;;;;;16.62;67.26;102171.84;5095544;28;20032;-63
2022/08/29 06:53:01;;;;;;;16.60;5.40;;;;;;;16.78;66.71;102170.19;5077321;28;20085;-64
2022/08/29 06:55:26;;;;;;;10.30;4.80;;;;;;;16.97;66.38;102176.56;5095380;28;20028;-64
2022/08/29 06:57:52;;;;;;;13.63;5.53;;;;;;;17.13;65.99;102173.09;5077231;28;20024;-63
2022/08/29 07:00:20;;;;;;;13.18;5.45;;;;;;;17.41;64.66;102181.22;5094992;28;20069;-63
2022/08/29 07:02:46;;;;;;;10.02;5.30;;;;;;;17.47;63.81;102171.47;5095138;28;20074;-64
2022/08/29 07:05:14;;;;;;;9.85;5.43;;;;;;;17.67;63.35;102167.94;5095264;28;20020;-64
2022/08/29 07:07:41;;;;;;;10.35;5.20;;;;;;;17.86;62.88;102158.19;5077604;28;20024;-64
2022/08/29 07:10:07;;;;;;;13.20;5.25;;;;;;;17.94;62.79;102172.47;5095227;28;20024;-63
2022/08/29 07:12:33;;;;;;;11.77;5.68;;;;;;;18.06;62.30;102179.63;5095282;28;20545;-63
2022/08/29 07:14:58;;;;;;;15.88;5.85;;;;;;;18.20;62.13;102186.78;5094818;28;20052;-64
2022/08/29 07:17:23;;;;;;;11.25;5.32;;;;;;;18.46;61.42;102177.88;5095067;28;20036;-64
2022/08/29 07:19:49;;;;;;;11.23;5.40;;;;;;;18.93;60.70;102171.59;5095353;28;20111;-64
2022/08/29 07:22:15;;;;;;;17.75;5.40;;;;;;;19.42;59.47;102166.91;5095057;28;20028;-65
2022/08/29 07:24:40;;;;;;;12.82;5.30;;;;;;;19.87;57.64;102166.69;5095084;28;20020;-63
2022/08/29 07:27:05;;;;;;;10.30;4.90;;;;;;;20.25;54.28;102163.72;5094947;28;20035;-64
2022/08/29 07:29:31;;;;;;;13.77;5.22;;;;;;;20.48;52.76;102160.88;5094653;28;20427;-64
2022/08/29 07:31:56;;;;;;;12.85;5.13;;;;;;;20.85;51.40;102157.81;5059813;28;20059;-64
2022/08/29 07:34:21;;;;;;;23.10;4.88;;;;;;;21.20;50.33;102165.50;5094483;28;20423;-64
2022/08/29 07:36:47;;;;;;;14.88;4.70;;;;;;;21.67;48.85;102162.19;5094078;28;20032;-64
2022/08/29 07:39:17;;;;;;;9.65;4.15;;;;;;;22.09;45.82;102166.94;5094267;28;20474;-65
2022/08/29 07:41:43;;;;;;;9.40;4.00;;;;;;;22.28;43.44;102165.75;5095337;28;20020;-64
2022/08/29 07:44:10;;;;;;;14.30;4.20;;;;;;;22.34;43.02;102156.69;5094467;28;20085;-64
2022/08/29 07:46:35;;;;;;;17.38;4.10;;;;;;;22.31;43.21;102151.34;5076411;28;20020;-64
2022/08/29 07:49:01;;;;;;;7.72;4.15;;;;;;;22.31;43.14;102149.56;5094462;28;20438;-64
2022/08/29 07:51:27;;;;;;;9.25;3.70;;;;;;;22.25;41.89;102147.84;5094779;28;20038;-65
2022/08/29 07:53:53;;;;;;;11.38;4.25;;;;;;;22.22;43.02;102139.81;5094325;28;20130;-64
2022/08/29 07:56:31;;;;;;;8.85;3.92;;;;;;;22.22;43.51;102149.69;5094307;28;20028;-65
2022/08/29 07:58:58;;;;;;;7.63;3.90;;;;;;;22.13;42.65;102149.84;5094154;28;20103;-63
2022/08/29 08:01:24;;;;;;;10.93;4.43;;;;;;;22.16;43.48;102152.50;5094304;28;20166;-64
2022/08/29 08:03:51;;;;;;;13.10;3.90;;;;;;;22.05;43.48;102154.44;5094556;28;20405;-64
2022/08/29 08:06:18;;;;;;;9.15;3.92;;;;;;;22.06;42.35;102146.34;5094257;28;20145;-64
2022/08/29 08:08:44;;;;;;;8.15;3.42;;;;;;;22.21;42.05;102156.00;5094253;28;20036;-64
2022/08/29 08:11:09;;;;;;;12.65;3.60;;;;;;;22.16;40.78;102150.69;5093931;28;20031;-63
2022/08/29 08:13:36;;;;;;;9.35;3.83;;;;;;;22.35;41.22;102153.94;5093889;28;20058;-64
2022/08/29 08:16:04;;;;;;;8.52;3.72;;;;;;;22.33;41.17;102155.78;5093880;28;20442;-64
2022/08/29 08:18:30;;;;;;;9.48;3.50;;;;;;;22.30;41.24;102155.84;5094114;28;20028;-63
2022/08/29 08:20:55;;;;;;;9.88;3.42;;;;;;;22.30;40.49;102152.25;5094086;28;20346;-64
2022/08/29 08:23:21;;;;;;;7.78;3.40;;;;;;;22.29;41.23;102151.38;5093822;28;20020;-65
2022/08/29 08:25:46;;;;;;;6.57;3.33;;;;;;;22.42;40.65;102149.38;5094075;28;20103;-63
2022/08/29 08:28:13;;;;;;;7.65;3.58;;;;;;;22.48;41.01;102154.63;5093469;28;20504;-64
2022/08/29 08:30:39;;;;;;;6.35;3.20;;;;;;;22.48;40.71;102157.31;5093823;28;20028;-64
2022/08/29 08:33:04;;;;;;;8.77;3.53;;;;;;;22.44;40.36;102155.59;5093603;28;20031;-64
2022/08/29 08:35:33;;;;;;;8.57;3.90;;;;;;;22.54;40.42;102156.34;5093610;28;20020;-64
2022/08/29 08:38:00;;;;;;;11.02;3.65;;;;;;;22.72;40.18;102153.31;5093655;28;20031;-64
2022/08/29 08:40:27;;;;;;;7.40;3.60;;;;;;;22.88;40.21;102149.41;5075131;28;20031;-65
2022/08/29 08:43:00;;;;;;;8.75;4.20;;;;;;;22.97;39.21;102157.34;5093422;28;20082;-62
2022/08/29 08:45:41;;;;;;;10.20;4.32;;;;;;;22.98;40.38;102164.50;5093607;28;20032;-64
2022/08/29 08:48:33;;;;;;;10.13;4.20;;;;;;;22.89;39.79;102161.94;5093442;28;20016;-64
2022/08/29 08:51:13;;;;;;;9.15;4.43;;;;;;;22.62;40.62;102149.91;5093513;28;20088;-64
2022/08/29 08:53:42;;;;;;;9.70;3.90;;;;;;;22.49;40.38;102149.22;5093437;28;20062;-64
2022/08/29 08:56:15;;;;;;;8.85;3.80;;;;;;;22.47;40.53;102148.34;5093268;28;20048;-64
2022/08/29 08:58:54;;;;;;;8.60;3.60;;;;;;;22.41;40.75;102143.09;5093090;28;20031;-64
2022/08/29 09:01:25;;;;;;;11.77;3.78;;;;;;;22.47;40.08;102151.03;5093231;28;20024;-64
2022/08/29 09:04:01;;;;;;;7.07;3.80;;;;;;;22.60;40.09;102146.31;5093184;28;20481;-64
2022/08/29 09:06:38;;;;;;;9.98;3.83;;;;;;;22.83;40.10;102145.91;5093069;28;20483;-64
2022/08/29 09:09:41;;;;;;;7.63;3.85;;;;;;;23.00;38.95;102153.69;5093552;28;20028;-63
2022/08/29 09:12:15;;;;;;;9.35;3.67;;;;;;;23.24;38.59;102153.16;5093186;28;20085;-65
2022/08/29 09:15:06;;;;;;;7.55;3.92;;;;;;;23.33;38.92;102162.88;5092911;28;20048;-64
2022/08/29 09:17:49;;;;;;;7.60;3.60;;;;;;;23.19;39.67;102160.47;5093221;28;20032;-64
2022/08/29 09:20:21;;;;;;;7.18;3.83;;;;;;;23.02;39.35;102159.94;5092749;28;20035;-63
2022/08/29 09:23:17;;;;;;;6.82;3.47;;;;;;;23.13;40.00;102155.22;5093423;28;20024;-64
2022/08/29 09:25:43;;;;;;;7.57;3.88;;;;;;;23.24;39.52;102163.97;5093096;28;20028;-64
2022/08/29 09:28:08;;;;;;;8.18;3.65;;;;;;;23.27;39.78;102162.13;5092687;28;20039;-66
2022/08/29 09:30:37;;;;;;;7.32;3.85;;;;;;;23.25;38.76;102159.44;5092974;28;20031;-63
2022/08/29 09:33:09;;;;;;;10.52;3.78;;;;;;;23.26;40.08;102161.25;5092906;28;20024;-64
2022/08/29 09:35:40;;;;;;;12.45;4.10;;;;;;;23.23;39.76;102169.41;5092900;28;20020;-64
2022/08/29 09:38:17;;;;;;;8.07;4.10;;;;;;;23.09;39.52;102169.69;5092902;28;20028;-64
2022/08/29 09:40:51;;;;;;;11.30;4.03;;;;;;;22.99;39.76;102177.03;5092989;28;20027;-64
2022/08/29 09:43:54;;;;;;;11.68;3.85;;;;;;;22.81;39.59;102163.91;5093157;28;20063;-64
2022/08/29 09:46:24;;;;;;;7.20;3.90;;;;;;;22.83;39.77;102166.59;5076776;28;20044;-65
2022/08/29 09:49:12;;;;;;;9.85;3.90;;;;;;;22.76;41.06;102168.50;5092783;28;20036;-63
2022/08/29 09:51:41;;;;;;;8.20;3.88;;;;;;;22.62;40.29;102171.44;5092828;28;20089;-64
2022/08/29 09:54:14;;;;;;;10.13;4.05;;;;;;;22.61;40.25;102163.38;5092981;28;20024;-64
2022/08/29 09:57:03;;;;;;;7.65;3.67;;;;;;;22.71;40.45;102160.50;5096733;28;20028;-65
2022/08/29 09:59:34;;;;;;;8.50;3.80;;;;;;;22.87;40.21;102160.19;5096404;28;20031;-64
2022/08/29 10:02:21;;;;;;;8.90;3.80;;;;;;;23.07;39.90;102159.84;5096634;28;20103;-64
2022/08/29 10:04:55;;;;;;;15.20;4.10;;;;;;;23.17;40.06;102156.94;5096548;28;20423;-64
2022/08/29 10:07:25;;;;;;;8.27;3.80;;;;;;;23.41;39.82;102151.94;5096600;28;20021;-64
2022/08/29 10:10:04;;;;;;;9.43;4.13;;;;;;;23.85;39.45;102150.94;5096617;28;20028;-64
2022/08/29 10:12:44;;;;;;;8.75;4.00;;;;;;;23.91;39.08;102152.63;5096495;28;20035;-64
2022/08/29 10:15:19;;;;;;;8.07;4.15;;;;;;;23.68;38.83;102154.06;5096186;28;20063;-65
2022/08/29 10:21:09;;;;;;;8.88;4.05;;;;;;;23.55;39.02;102162.41;5096433;28;20090;-64
2022/08/29 10:24:12;;;;;;;9.20;4.00;;;;;;;23.43;39.91;102159.06;5096312;28;20031;-64
2022/08/29 10:26:49;;;;;;;9.60;3.85;;;;;;;23.63;39.45;102157.72;5096178;28;20028;-64
2022/08/29 10:29:35;;;;;;;11.57;4.30;;;;;;;23.71;39.43;102164.75;5096020;28;20389;-65
2022/08/29 10:32:15;;;;;;;10.80;4.15;;;;;;;23.65;38.98;102155.94;5096246;28;20035;-63
2022/08/29 10:35:00;;;;;;;7.60;3.80;;;;;;;23.58;39.30;102163.22;5096040;28;20024;-65
2022/08/29 10:37:44;;;;;;;8.82;3.70;;;;;;;23.55;39.05;102159.72;5095612;28;20028;-64
2022/08/29 10:40:29;;;;;;;7.15;3.88;;;;;;;23.46;38.10;102152.72;5096091;28;20052;-63
2022/08/29 10:43:25;;;;;;;8.60;3.90;;;;;;;23.58;39.03;102151.56;5095833;28;20020;-65
2022/08/29 10:46:03;;;;;;;9.00;4.10;;;;;;;23.68;39.04;102145.97;5095953;28;20028;-64
2022/08/29 10:48:36;;;;;;;10.32;3.78;;;;;;;24.28;37.74;102136.38;5096062;28;20028;-64
2022/08/29 10:51:26;;;;;;;8.38;3.72;;;;;;;24.35;37.74;102143.41;5095587;28;20107;-64
2022/08/29 10:53:59;;;;;;;6.68;3.78;;;;;;;24.49;37.00;102143.94;5095659;28;20024;-63
2022/08/29 10:56:43;;;;;;;10.07;3.83;;;;;;;24.94;37.03;102134.63;5095751;28;20056;-65
2022/08/29 10:59:24;;;;;;;8.88;3.60;;;;;;;25.49;35.53;102130.31;5095388;28;20380;-64
2022/08/29 11:01:59;;;;;;;10.33;3.83;;;;;;;25.80;35.58;102123.94;5095726;28;20028;-64
2022/08/29 11:04:36;;;;;;;8.07;3.67;;;;;;;26.20;33.75;102134.34;5095498;28;20107;-67
2022/08/29 11:07:05;;;;;;;8.43;4.00;;;;;;;26.28;33.05;102126.81;5095237;28;20035;-64
2022/08/29 11:09:39;;;;;;;10.80;3.88;;;;;;;26.38;33.02;102127.38;5095260;28;20099;-65
2022/08/29 11:12:17;;;;;;;7.30;3.80;;;;;;;26.36;33.58;102116.63;5095168;28;20020;-64
2022/08/29 11:14:52;;;;;;;9.80;3.90;;;;;;;26.41;32.18;102106.47;5094978;28;20520;-62
2022/08/29 11:17:23;;;;;;;9.10;4.00;;;;;;;26.56;32.65;102115.06;5095223;28;20438;-63
2022/08/29 11:20:01;;;;;;;10.05;3.90;;;;;;;26.83;32.76;102107.75;5095192;28;20020;-65
2022/08/29 11:22:38;;;;;;;10.13;3.75;;;;;;;27.12;32.27;102115.69;5095146;28;20024;-64
2022/08/29 11:25:14;;;;;;;8.43;3.90;;;;;;;27.54;31.36;102104.09;5077323;28;20031;-64
2022/08/29 11:28:10;;;;;;;6.72;3.67;;;;;;;27.78;31.19;102099.53;5095225;28;20020;-64
2022/08/29 11:31:10;;;;;;;8.75;3.70;;;;;;;27.94;30.45;102087.06;5096305;28;20085;-64
2022/08/29 11:33:54;;;;;;;11.85;4.35;;;;;;;28.25;29.49;102095.75;5095733;28;20048;-64
2022/08/29 11:36:50;;;;;;;8.07;3.70;;;;;;;28.48;28.98;102087.50;5095101;28;20537;-64
2022/08/29 11:39:40;;;;;;;6.13;3.78;;;;;;;28.67;29.92;102079.38;5095736;28;20028;-64